Blairs, VA (24527)

6:16 PM EDT on October 21, 2014 (GMT -0400)
Kentuck Community | Change Station
CLOSE
Current Station
Personal Weather Station
Location: Ringgold, VA
Elevation: 692 ft
Nearby Weather Stations

Elev 692 ft 36.64 °N, 79.31 °W | Updated 17 seconds ago

Mostly Cloudy
Mostly Cloudy
63.1 °F
Feels Like 63.1 °F
N
9.0
Wind Variable Wind from WNW
Gusts 16.0 mph

Today
High -- | Low -- °F
--% Chance of Precip.
Yesterday
High -- | Low -- °F
Precip. -- in
7:30 AM 6:33 PM
Waning Crescent, 4% visible
Pressure 29.85 in
Visibility 10.0 miles
Clouds Scattered Clouds 6500 ft
Overcast 9000 ft
Dew Point 47 °F
Humidity 56%
Rainfall 0.00 in
Snow Depth Not available.
UV 0.0 out of 12
Pollen 1.90 out of 12
Air Quality Not available.
Flu Activity Local Activity
METAR KDAN 212153Z AUTO 30010G18KT 10SM SCT065 OVC090 19/06 A2987 RMK AO2 SLP108 T01890056

More Conditions Fewer Conditions

Pressure 29.85 in
Visibility 10.0 miles
Clouds Scattered Clouds 6500 ft
Overcast 9000 ft
Dew Point 47 °F
Humidity 56%
Rainfall 0.00 in
Snow Depth Not available.
UV 0.0 out of 12
Pollen 1.90 out of 12
Air Quality Not available.
Flu Activity Local Activity
METAR KDAN 212153Z AUTO 30010G18KT 10SM SCT065 OVC090 19/06 A2987 RMK AO2 SLP108 T01890056

More Conditions Fewer Conditions

10-Day Weather Forecast

Almanac

Astronomy

Oct. 21, 2014 Rise Set
Actual Time 7:30 AM EDT 6:33 PM EDT
Civil Twilight 7:04 AM EDT 6:59 PM EDT
Nautical Twilight 6:33 AM EDT 7:29 PM EDT
Astronomical Twilight 6:04 AM EDT 7:59 PM EDT
Moon 5:16 AM EDT 5:23 PM EDT
Length of Visible Light 11h 55m
Length of Day
11h 02m
Tomorrow will be 2m 11s shorter.
Waning Crescent, 4% of the Moon is Illuminated
Today
Waning Crescent
Oct 23
New
Oct 30
First Quarter
Nov 6
Full
Nov 14
Last Quarter

Today's Extremes

State Highs State Lows

Community

WunderPhotos

Upload Photos

1,763,798 photos uploaded!

Nearby

Snow Depth

Station Depth Elevation
No new snow has been reported.

Earthquake Activity

City Distance Mag. Time & Date
No recent earthquake activity has been reported nearby.
Minimum magnitude displayed is 2.5.

Coastal Water Temperatures

Place Temperature
No Stations Reporting

Nearby Weather Stations